Airfield :
LOGIN :

Register | Disclaimer

   EN    FR    IT 

 










Legend :    VFR   Marginal VFR   IFR   Intensive IFR   Very Intensive IFR
Visi :
Ceiling :
>= 8 km
>= 3000ft
5 to 8 km
1000 to 3000 ft
1500m to 5 km
500 to 1000 ft
800 to 1500m
200 to 500 ft
< 800m
< 200 ft
Symbols :   Thunderstorms  Fog  Heavy snow  Heavy precipitations  Wind > 20 kt
SIGMETs :     Misc.  Thunderstorms  Icing  Turbulence  Mountain Waves  Volcanic Ashes






- Airport Elevation : 989 ft
- IATA code : TRN


LIMF - Torino Caselle

CURRENT METAR :
  • 082120Z 29003KT 0100 R36/0550N FZFG VV001 M00/M00 Q1000

EXPIRED METARs :
  • 082050Z 28003KT 0400 R36/P1500N FG BKN002 00/00 Q1000
  • 082020Z VRB01KT 0900 R36/P1500N FG BKN003 00/00 Q1000
  • 081950Z 21003KT 0800 R36/P1500N FG BKN002 00/00 Q1000
  • 081920Z 22004KT 0800 R36/P1500N FG BKN002 00/00 Q1000
  • 081850Z 23003KT 0300 R36/P1500N FG BKN002 00/00 Q1000

TAF AMD TAF LIMF
Valid from the 08 at 18:00 until the 09 at 18:00 UTC


081854Z 0818/0918 VRB05KT 1200 BR SCT020
TEMPO 0818/0820 0300 FG BKN005
TEMPO 0820/0906 0300 FZFG BKN005
BECMG 0907/0909 6000



MET'MAP, your aeronautical weather chart ! - Copyright ORBIFLY December 2007 - Disclaimer

ORBIFLY MET'MAP TEAM :

Programming & Development : Alexandra Zaïnal
Concept & original design : Baudouin d'Aumeries
Assistance for programming : Marc-Olivier Méhu
Technical & hardware support : Manuel Goepfert

Contact : metmap@orbifly.com




SOURCES & CREDITS :

   NOAA